sensor_id;sensor_type;location;lat;lon;timestamp;temperature;humidity
46378;DHT22;32083;47.360;9.650;2023-04-03T00:02:29;7.90;99.90
46378;DHT22;32083;47.360;9.650;2023-04-03T00:05:42;7.90;99.90
46378;DHT22;32083;47.360;9.650;2023-04-03T00:09:07;7.80;99.90
46378;DHT22;32083;47.360;9.650;2023-04-03T00:14:39;7.80;99.90
46378;DHT22;32083;47.360;9.650;2023-04-03T00:18:29;7.90;99.90
46378;DHT22;32083;47.360;9.650;2023-04-03T00:22:05;7.70;99.90
46378;DHT22;32083;47.360;9.650;2023-04-03T00:24:42;7.70;99.90
46378;DHT22;32083;47.360;9.650;2023-04-03T00:30:58;7.60;99.90
46378;DHT22;32083;47.360;9.650;2023-04-03T00:33:57;7.70;99.90
46378;DHT22;32083;47.360;9.650;2023-04-03T00:37:09;7.60;99.90
46378;DHT22;32083;47.360;9.650;2023-04-03T00:40:38;7.60;99.90
46378;DHT22;32083;47.360;9.650;2023-04-03T00:43:34;7.50;99.90
46378;DHT22;32083;47.360;9.650;2023-04-03T00:46:18;7.40;99.90
46378;DHT22;32083;47.360;9.650;2023-04-03T00:48:54;7.30;99.90
46378;DHT22;32083;47.360;9.650;2023-04-03T00:52:07;7.20;99.90
46378;DHT22;32083;47.360;9.650;2023-04-03T00:55:14;7.20;99.90
46378;DHT22;32083;47.360;9.650;2023-04-03T00:58:33;7.10;99.90
46378;DHT22;32083;47.360;9.650;2023-04-03T01:04:58;6.90;99.90
46378;DHT22;32083;47.360;9.650;2023-04-03T01:08:29;7.00;99.90
46378;DHT22;32083;47.360;9.650;2023-04-03T01:11:36;7.00;99.90
46378;DHT22;32083;47.360;9.650;2023-04-03T01:14:37;6.80;99.90
46378;DHT22;32083;47.360;9.650;2023-04-03T01:17:45;6.80;99.90
46378;DHT22;32083;47.360;9.650;2023-04-03T01:24:11;6.60;99.90
46378;DHT22;32083;47.360;9.650;2023-04-03T01:27:31;6.60;99.90
46378;DHT22;32083;47.360;9.650;2023-04-03T01:34:24;6.60;99.90
46378;DHT22;32083;47.360;9.650;2023-04-03T01:45:54;6.40;99.90
46378;DHT22;32083;47.360;9.650;2023-04-03T01:49:23;6.40;99.90
46378;DHT22;32083;47.360;9.650;2023-04-03T01:51:57;6.30;99.90
46378;DHT22;32083;47.360;9.650;2023-04-03T01:54:43;6.30;99.90
46378;DHT22;32083;47.360;9.650;2023-04-03T01:57:41;6.10;99.90
46378;DHT22;32083;47.360;9.650;2023-04-03T02:03:48;6.20;99.90
46378;DHT22;32083;47.360;9.650;2023-04-03T02:10:24;6.10;99.90
46378;DHT22;32083;47.360;9.650;2023-04-03T02:16:33;6.20;99.90
46378;DHT22;32083;47.360;9.650;2023-04-03T02:19:27;6.30;99.90
46378;DHT22;32083;47.360;9.650;2023-04-03T02:22:34;6.20;99.90
46378;DHT22;32083;47.360;9.650;2023-04-03T02:25:46;6.00;99.90
46378;DHT22;32083;47.360;9.650;2023-04-03T02:33:54;5.90;99.90
46378;DHT22;32083;47.360;9.650;2023-04-03T02:36:39;5.80;99.90
46378;DHT22;32083;47.360;9.650;2023-04-03T02:39:05;5.70;99.90
46378;DHT22;32083;47.360;9.650;2023-04-03T02:44:38;5.60;99.90
46378;DHT22;32083;47.360;9.650;2023-04-03T02:47:15;5.50;99.90
46378;DHT22;32083;47.360;9.650;2023-04-03T02:50:02;5.40;99.90
46378;DHT22;32083;47.360;9.650;2023-04-03T02:56:07;5.40;99.90
46378;DHT22;32083;47.360;9.650;2023-04-03T02:59:45;5.20;99.90
46378;DHT22;32083;47.360;9.650;2023-04-03T03:03:06;5.30;99.90
46378;DHT22;32083;47.360;9.650;2023-04-03T03:06:20;5.20;99.90
46378;DHT22;32083;47.360;9.650;2023-04-03T03:11:45;5.20;99.90
46378;DHT22;32083;47.360;9.650;2023-04-03T03:14:16;5.20;99.90
46378;DHT22;32083;47.360;9.650;2023-04-03T03:17:27;5.20;99.90
46378;DHT22;32083;47.360;9.650;2023-04-03T03:20:33;5.30;99.90
46378;DHT22;32083;47.360;9.650;2023-04-03T03:23:34;5.20;99.90
46378;DHT22;32083;47.360;9.650;2023-04-03T03:29:03;4.90;99.90
46378;DHT22;32083;47.360;9.650;2023-04-03T03:32:11;5.00;99.90
46378;DHT22;32083;47.360;9.650;2023-04-03T03:34:56;4.80;99.90
46378;DHT22;32083;47.360;9.650;2023-04-03T03:37:56;4.80;99.90
46378;DHT22;32083;47.360;9.650;2023-04-03T03:41:02;4.80;99.90
46378;DHT22;32083;47.360;9.650;2023-04-03T03:50:12;4.70;99.90
46378;DHT22;32083;47.360;9.650;2023-04-03T03:56:07;4.40;99.90
46378;DHT22;32083;47.360;9.650;2023-04-03T03:58:49;4.40;99.90
46378;DHT22;32083;47.360;9.650;2023-04-03T04:02:04;4.30;99.90
46378;DHT22;32083;47.360;9.650;2023-04-03T04:05:22;4.50;99.90
46378;DHT22;32083;47.360;9.650;2023-04-03T04:08:09;4.50;99.90
46378;DHT22;32083;47.360;9.650;2023-04-03T04:11:20;4.30;99.90
46378;DHT22;32083;47.360;9.650;2023-04-03T04:14:20;4.20;99.90
46378;DHT22;32083;47.360;9.650;2023-04-03T04:17:39;4.30;99.90
46378;DHT22;32083;47.360;9.650;2023-04-03T04:27:55;4.40;99.90
46378;DHT22;32083;47.360;9.650;2023-04-03T04:30:21;4.20;99.90
46378;DHT22;32083;47.360;9.650;2023-04-03T04:32:46;4.30;99.90
46378;DHT22;32083;47.360;9.650;2023-04-03T04:35:12;4.20;99.90
46378;DHT22;32083;47.360;9.650;2023-04-03T04:37:38;4.30;99.90
46378;DHT22;32083;47.360;9.650;2023-04-03T04:40:05;3.90;99.90
46378;DHT22;32083;47.360;9.650;2023-04-03T04:42:31;4.20;99.90
46378;DHT22;32083;47.360;9.650;2023-04-03T04:44:57;4.00;99.90
46378;DHT22;32083;47.360;9.650;2023-04-03T04:47:23;4.00;99.90
46378;DHT22;32083;47.360;9.650;2023-04-03T04:49:49;4.00;99.90
46378;DHT22;32083;47.360;9.650;2023-04-03T04:52:15;4.00;99.90
46378;DHT22;32083;47.360;9.650;2023-04-03T04:54:41;3.90;99.90
46378;DHT22;32083;47.360;9.650;2023-04-03T04:57:07;4.00;99.90
46378;DHT22;32083;47.360;9.650;2023-04-03T04:59:33;4.00;99.90
46378;DHT22;32083;47.360;9.650;2023-04-03T05:01:59;4.00;99.90
46378;DHT22;32083;47.360;9.650;2023-04-03T05:04:26;3.90;99.90
46378;DHT22;32083;47.360;9.650;2023-04-03T05:06:51;3.70;99.90
46378;DHT22;32083;47.360;9.650;2023-04-03T05:09:17;3.90;99.90
46378;DHT22;32083;47.360;9.650;2023-04-03T05:11:46;3.90;99.90
46378;DHT22;32083;47.360;9.650;2023-04-03T05:14:12;3.80;99.90
46378;DHT22;32083;47.360;9.650;2023-04-03T05:16:38;3.90;99.90
46378;DHT22;32083;47.360;9.650;2023-04-03T05:19:04;3.90;99.90
46378;DHT22;32083;47.360;9.650;2023-04-03T05:21:30;4.00;99.90
46378;DHT22;32083;47.360;9.650;2023-04-03T05:24:01;4.00;99.90
46378;DHT22;32083;47.360;9.650;2023-04-03T05:26:30;3.90;99.90
46378;DHT22;32083;47.360;9.650;2023-04-03T05:28:56;3.80;99.90
46378;DHT22;32083;47.360;9.650;2023-04-03T05:31:22;3.90;99.90
46378;DHT22;32083;47.360;9.650;2023-04-03T05:33:48;3.90;99.90
46378;DHT22;32083;47.360;9.650;2023-04-03T05:36:15;3.90;99.90
46378;DHT22;32083;47.360;9.650;2023-04-03T05:38:41;4.00;99.90
46378;DHT22;32083;47.360;9.650;2023-04-03T05:41:07;3.90;99.90
46378;DHT22;32083;47.360;9.650;2023-04-03T05:43:33;3.90;99.90
46378;DHT22;32083;47.360;9.650;2023-04-03T05:46:00;4.00;99.90
46378;DHT22;32083;47.360;9.650;2023-04-03T05:48:26;4.10;99.90
46378;DHT22;32083;47.360;9.650;2023-04-03T05:50:52;4.10;99.90
46378;DHT22;32083;47.360;9.650;2023-04-03T05:53:21;4.10;99.90
46378;DHT22;32083;47.360;9.650;2023-04-03T05:55:48;4.10;99.90
46378;DHT22;32083;47.360;9.650;2023-04-03T05:58:13;4.10;99.90
46378;DHT22;32083;47.360;9.650;2023-04-03T06:00:40;4.00;99.90
46378;DHT22;32083;47.360;9.650;2023-04-03T06:03:06;4.00;99.90
46378;DHT22;32083;47.360;9.650;2023-04-03T06:05:32;4.10;99.90
46378;DHT22;32083;47.360;9.650;2023-04-03T06:07:58;4.20;99.90
46378;DHT22;32083;47.360;9.650;2023-04-03T06:10:24;4.20;99.90
46378;DHT22;32083;47.360;9.650;2023-04-03T06:12:50;4.20;99.90
46378;DHT22;32083;47.360;9.650;2023-04-03T06:15:17;4.20;99.90
46378;DHT22;32083;47.360;9.650;2023-04-03T06:17:43;4.30;99.90
46378;DHT22;32083;47.360;9.650;2023-04-03T06:20:10;4.30;99.90
46378;DHT22;32083;47.360;9.650;2023-04-03T06:22:36;4.40;99.90
46378;DHT22;32083;47.360;9.650;2023-04-03T06:25:03;4.10;99.90
46378;DHT22;32083;47.360;9.650;2023-04-03T06:27:29;3.90;99.90
46378;DHT22;32083;47.360;9.650;2023-04-03T06:29:55;4.10;99.90
46378;DHT22;32083;47.360;9.650;2023-04-03T06:32:21;4.00;99.90
46378;DHT22;32083;47.360;9.650;2023-04-03T06:34:47;4.00;99.90
46378;DHT22;32083;47.360;9.650;2023-04-03T06:37:21;4.00;99.90
46378;DHT22;32083;47.360;9.650;2023-04-03T06:39:47;4.00;99.90
46378;DHT22;32083;47.360;9.650;2023-04-03T06:42:14;4.10;99.90
46378;DHT22;32083;47.360;9.650;2023-04-03T06:44:39;4.10;99.90
46378;DHT22;32083;47.360;9.650;2023-04-03T06:47:05;4.00;99.90
46378;DHT22;32083;47.360;9.650;2023-04-03T06:49:31;4.10;99.90
46378;DHT22;32083;47.360;9.650;2023-04-03T06:51:58;4.20;99.90
46378;DHT22;32083;47.360;9.650;2023-04-03T06:54:24;4.20;99.90
46378;DHT22;32083;47.360;9.650;2023-04-03T06:56:50;4.20;99.90
46378;DHT22;32083;47.360;9.650;2023-04-03T06:59:16;4.30;99.90
46378;DHT22;32083;47.360;9.650;2023-04-03T07:01:42;4.30;99.90
46378;DHT22;32083;47.360;9.650;2023-04-03T07:04:08;4.40;99.90
46378;DHT22;32083;47.360;9.650;2023-04-03T07:06:35;4.40;99.90
46378;DHT22;32083;47.360;9.650;2023-04-03T07:09:01;4.40;99.90
46378;DHT22;32083;47.360;9.650;2023-04-03T07:11:28;4.40;99.90
46378;DHT22;32083;47.360;9.650;2023-04-03T07:13:54;4.50;99.90
46378;DHT22;32083;47.360;9.650;2023-04-03T07:16:20;4.50;99.90
46378;DHT22;32083;47.360;9.650;2023-04-03T07:18:46;4.40;99.90
46378;DHT22;32083;47.360;9.650;2023-04-03T07:21:12;4.40;99.90
46378;DHT22;32083;47.360;9.650;2023-04-03T07:23:38;4.60;99.90
46378;DHT22;32083;47.360;9.650;2023-04-03T07:26:05;4.50;99.90
46378;DHT22;32083;47.360;9.650;2023-04-03T07:28:32;4.50;99.90
46378;DHT22;32083;47.360;9.650;2023-04-03T07:31:08;4.50;99.90
46378;DHT22;32083;47.360;9.650;2023-04-03T07:33:34;4.50;99.90
46378;DHT22;32083;47.360;9.650;2023-04-03T07:36:01;4.50;99.90
46378;DHT22;32083;47.360;9.650;2023-04-03T07:38:27;4.40;99.90
46378;DHT22;32083;47.360;9.650;2023-04-03T07:40:53;4.60;99.90
46378;DHT22;32083;47.360;9.650;2023-04-03T07:43:20;4.50;99.90
46378;DHT22;32083;47.360;9.650;2023-04-03T07:45:48;4.40;99.90
46378;DHT22;32083;47.360;9.650;2023-04-03T07:48:19;4.50;99.90
46378;DHT22;32083;47.360;9.650;2023-04-03T07:50:45;4.60;99.90
46378;DHT22;32083;47.360;9.650;2023-04-03T07:53:11;4.70;99.90
46378;DHT22;32083;47.360;9.650;2023-04-03T07:55:37;4.70;99.90
46378;DHT22;32083;47.360;9.650;2023-04-03T07:58:13;4.60;99.90
46378;DHT22;32083;47.360;9.650;2023-04-03T08:00:40;4.70;99.90
46378;DHT22;32083;47.360;9.650;2023-04-03T08:03:07;4.80;99.90
46378;DHT22;32083;47.360;9.650;2023-04-03T08:05:39;4.80;99.90
46378;DHT22;32083;47.360;9.650;2023-04-03T08:08:06;4.80;99.90
46378;DHT22;32083;47.360;9.650;2023-04-03T08:10:33;4.60;99.90
46378;DHT22;32083;47.360;9.650;2023-04-03T08:13:01;4.50;99.90
46378;DHT22;32083;47.360;9.650;2023-04-03T08:15:27;4.50;99.90
46378;DHT22;32083;47.360;9.650;2023-04-03T08:17:53;4.40;99.90
46378;DHT22;32083;47.360;9.650;2023-04-03T08:20:19;4.60;99.90
46378;DHT22;32083;47.360;9.650;2023-04-03T08:22:45;4.60;99.90
46378;DHT22;32083;47.360;9.650;2023-04-03T08:25:11;4.60;99.90
46378;DHT22;32083;47.360;9.650;2023-04-03T08:27:37;4.60;99.90
46378;DHT22;32083;47.360;9.650;2023-04-03T08:30:04;4.70;99.90
46378;DHT22;32083;47.360;9.650;2023-04-03T08:32:30;4.70;99.90
46378;DHT22;32083;47.360;9.650;2023-04-03T08:34:56;4.70;99.90
46378;DHT22;32083;47.360;9.650;2023-04-03T08:37:22;4.70;99.90
46378;DHT22;32083;47.360;9.650;2023-04-03T08:39:48;4.60;99.90
46378;DHT22;32083;47.360;9.650;2023-04-03T08:50:43;4.90;99.90
46378;DHT22;32083;47.360;9.650;2023-04-03T08:53:15;4.90;99.90
46378;DHT22;32083;47.360;9.650;2023-04-03T08:55:52;4.90;99.90
46378;DHT22;32083;47.360;9.650;2023-04-03T08:58:19;4.90;99.90
46378;DHT22;32083;47.360;9.650;2023-04-03T09:03:18;5.00;99.90
46378;DHT22;32083;47.360;9.650;2023-04-03T09:05:55;5.00;99.90
46378;DHT22;32083;47.360;9.650;2023-04-03T09:08:31;5.00;99.90
46378;DHT22;32083;47.360;9.650;2023-04-03T09:11:06;4.90;99.90
46378;DHT22;32083;47.360;9.650;2023-04-03T09:14:20;5.00;99.90
46378;DHT22;32083;47.360;9.650;2023-04-03T09:19:38;5.00;99.90
46378;DHT22;32083;47.360;9.650;2023-04-03T09:22:25;5.10;99.90
46378;DHT22;32083;47.360;9.650;2023-04-03T09:27:26;5.20;99.90
46378;DHT22;32083;47.360;9.650;2023-04-03T09:29:55;5.20;99.90
46378;DHT22;32083;47.360;9.650;2023-04-03T09:34:54;5.20;99.90
46378;DHT22;32083;47.360;9.650;2023-04-03T09:37:42;5.30;99.90
46378;DHT22;32083;47.360;9.650;2023-04-03T09:40:31;5.30;99.90
46378;DHT22;32083;47.360;9.650;2023-04-03T09:43:03;5.20;99.90
46378;DHT22;32083;47.360;9.650;2023-04-03T09:45:45;5.20;99.90
46378;DHT22;32083;47.360;9.650;2023-04-03T09:48:19;5.30;99.90
46378;DHT22;32083;47.360;9.650;2023-04-03T09:53:35;5.40;99.90
46378;DHT22;32083;47.360;9.650;2023-04-03T09:56:04;5.50;99.90
46378;DHT22;32083;47.360;9.650;2023-04-03T09:58:38;5.60;99.90
46378;DHT22;32083;47.360;9.650;2023-04-03T10:01:22;5.60;99.90
46378;DHT22;32083;47.360;9.650;2023-04-03T10:04:04;5.50;99.90
46378;DHT22;32083;47.360;9.650;2023-04-03T10:06:33;5.60;99.90
46378;DHT22;32083;47.360;9.650;2023-04-03T10:09:14;5.60;99.90
46378;DHT22;32083;47.360;9.650;2023-04-03T10:12:01;5.60;99.90
46378;DHT22;32083;47.360;9.650;2023-04-03T10:14:29;5.60;99.90
46378;DHT22;32083;47.360;9.650;2023-04-03T10:23:00;5.80;99.90
46378;DHT22;32083;47.360;9.650;2023-04-03T10:39:15;5.90;99.90
46378;DHT22;32083;47.360;9.650;2023-04-03T10:42:03;6.00;99.90
46378;DHT22;32083;47.360;9.650;2023-04-03T10:50:29;6.10;99.90
46378;DHT22;32083;47.360;9.650;2023-04-03T10:56:20;6.20;99.90
46378;DHT22;32083;47.360;9.650;2023-04-03T10:58:58;6.20;99.90
46378;DHT22;32083;47.360;9.650;2023-04-03T11:01:33;6.10;99.90
46378;DHT22;32083;47.360;9.650;2023-04-03T11:04:00;6.00;99.90
46378;DHT22;32083;47.360;9.650;2023-04-03T11:06:51;6.10;99.90
46378;DHT22;32083;47.360;9.650;2023-04-03T11:09:24;6.10;99.90
46378;DHT22;32083;47.360;9.650;2023-04-03T11:12:00;6.10;99.90
46378;DHT22;32083;47.360;9.650;2023-04-03T11:14:33;6.30;99.90
46378;DHT22;32083;47.360;9.650;2023-04-03T11:22:32;6.50;99.90
46378;DHT22;32083;47.360;9.650;2023-04-03T11:27:44;6.60;99.90
46378;DHT22;32083;47.360;9.650;2023-04-03T11:35:32;6.70;99.90
46378;DHT22;32083;47.360;9.650;2023-04-03T11:38:01;6.60;99.90
46378;DHT22;32083;47.360;9.650;2023-04-03T11:40:34;6.70;99.90
46378;DHT22;32083;47.360;9.650;2023-04-03T11:50:45;7.00;99.90
46378;DHT22;32083;47.360;9.650;2023-04-03T11:55:52;7.10;99.90
46378;DHT22;32083;47.360;9.650;2023-04-03T12:01:10;7.10;99.90
46378;DHT22;32083;47.360;9.650;2023-04-03T12:16:46;7.30;99.90
46378;DHT22;32083;47.360;9.650;2023-04-03T12:26:50;7.70;99.40
46378;DHT22;32083;47.360;9.650;2023-04-03T12:46:15;8.10;99.40
46378;DHT22;32083;47.360;9.650;2023-04-03T12:48:56;8.00;98.40
46378;DHT22;32083;47.360;9.650;2023-04-03T12:51:41;8.00;98.80
46378;DHT22;32083;47.360;9.650;2023-04-03T12:54:19;7.90;99.10
46378;DHT22;32083;47.360;9.650;2023-04-03T12:56:47;7.80;97.50
46378;DHT22;32083;47.360;9.650;2023-04-03T12:59:25;7.80;99.10
46378;DHT22;32083;47.360;9.650;2023-04-03T13:01:59;7.70;98.70
46378;DHT22;32083;47.360;9.650;2023-04-03T13:04:27;7.70;97.80
46378;DHT22;32083;47.360;9.650;2023-04-03T13:06:54;7.70;98.60
46378;DHT22;32083;47.360;9.650;2023-04-03T13:09:26;7.50;97.50
46378;DHT22;32083;47.360;9.650;2023-04-03T13:12:00;7.60;98.50
46378;DHT22;32083;47.360;9.650;2023-04-03T13:14:27;7.70;98.30
46378;DHT22;32083;47.360;9.650;2023-04-03T13:17:09;7.70;97.80
46378;DHT22;32083;47.360;9.650;2023-04-03T13:19:37;7.60;97.30
46378;DHT22;32083;47.360;9.650;2023-04-03T13:22:10;7.60;96.80
46378;DHT22;32083;47.360;9.650;2023-04-03T13:24:46;7.60;97.50
46378;DHT22;32083;47.360;9.650;2023-04-03T13:27:14;7.60;96.80
46378;DHT22;32083;47.360;9.650;2023-04-03T13:29:40;7.30;96.30
46378;DHT22;32083;47.360;9.650;2023-04-03T13:32:07;7.40;96.50
46378;DHT22;32083;47.360;9.650;2023-04-03T13:34:40;7.50;96.80
46378;DHT22;32083;47.360;9.650;2023-04-03T13:37:06;7.50;97.00
46378;DHT22;32083;47.360;9.650;2023-04-03T13:39:36;7.50;97.20
46378;DHT22;32083;47.360;9.650;2023-04-03T13:42:16;7.50;97.30
46378;DHT22;32083;47.360;9.650;2023-04-03T13:44:43;7.50;96.70
46378;DHT22;32083;47.360;9.650;2023-04-03T13:47:22;7.50;96.80
46378;DHT22;32083;47.360;9.650;2023-04-03T13:50:21;7.50;97.00
46378;DHT22;32083;47.360;9.650;2023-04-03T13:52:53;7.50;96.50
46378;DHT22;32083;47.360;9.650;2023-04-03T13:55:33;7.50;97.40
46378;DHT22;32083;47.360;9.650;2023-04-03T13:58:00;7.60;97.30
46378;DHT22;32083;47.360;9.650;2023-04-03T14:00:38;7.40;95.60
46378;DHT22;32083;47.360;9.650;2023-04-03T14:06:05;7.40;95.50
46378;DHT22;32083;47.360;9.650;2023-04-03T14:08:32;7.40;95.80
46378;DHT22;32083;47.360;9.650;2023-04-03T14:10:58;7.40;96.20
46378;DHT22;32083;47.360;9.650;2023-04-03T14:13:24;7.40;96.10
46378;DHT22;32083;47.360;9.650;2023-04-03T14:15:50;7.40;96.10
46378;DHT22;32083;47.360;9.650;2023-04-03T14:18:19;7.50;96.20
46378;DHT22;32083;47.360;9.650;2023-04-03T14:20:47;7.40;96.70
46378;DHT22;32083;47.360;9.650;2023-04-03T14:23:13;7.50;95.90
46378;DHT22;32083;47.360;9.650;2023-04-03T14:25:40;7.40;95.80
46378;DHT22;32083;47.360;9.650;2023-04-03T14:28:19;7.30;95.50
46378;DHT22;32083;47.360;9.650;2023-04-03T14:30:47;7.20;95.40
46378;DHT22;32083;47.360;9.650;2023-04-03T14:33:19;7.10;95.50
46378;DHT22;32083;47.360;9.650;2023-04-03T14:35:47;7.10;95.40
46378;DHT22;32083;47.360;9.650;2023-04-03T14:38:25;7.20;96.10
46378;DHT22;32083;47.360;9.650;2023-04-03T14:40:53;7.10;95.70
46378;DHT22;32083;47.360;9.650;2023-04-03T14:43:19;7.00;96.00
46378;DHT22;32083;47.360;9.650;2023-04-03T14:45:46;7.00;96.50
46378;DHT22;32083;47.360;9.650;2023-04-03T14:48:31;7.10;95.90
46378;DHT22;32083;47.360;9.650;2023-04-03T14:50:57;7.00;95.80
46378;DHT22;32083;47.360;9.650;2023-04-03T14:53:23;7.00;95.80
46378;DHT22;32083;47.360;9.650;2023-04-03T14:55:50;7.10;95.10
46378;DHT22;32083;47.360;9.650;2023-04-03T14:58:18;7.20;95.80
46378;DHT22;32083;47.360;9.650;2023-04-03T15:00:45;7.20;95.70
46378;DHT22;32083;47.360;9.650;2023-04-03T15:03:20;7.10;95.30
46378;DHT22;32083;47.360;9.650;2023-04-03T15:05:48;7.10;95.10
46378;DHT22;32083;47.360;9.650;2023-04-03T15:08:23;7.10;95.70
46378;DHT22;32083;47.360;9.650;2023-04-03T15:10:50;7.00;95.50
46378;DHT22;32083;47.360;9.650;2023-04-03T15:13:18;7.00;95.30
46378;DHT22;32083;47.360;9.650;2023-04-03T15:15:45;7.10;95.70
46378;DHT22;32083;47.360;9.650;2023-04-03T15:18:35;7.10;95.60
46378;DHT22;32083;47.360;9.650;2023-04-03T15:21:03;7.00;96.40
46378;DHT22;32083;47.360;9.650;2023-04-03T15:23:29;7.00;95.50
46378;DHT22;32083;47.360;9.650;2023-04-03T15:25:56;7.00;95.90
46378;DHT22;32083;47.360;9.650;2023-04-03T15:28:30;7.10;95.90
46378;DHT22;32083;47.360;9.650;2023-04-03T15:30:57;7.10;95.60
46378;DHT22;32083;47.360;9.650;2023-04-03T15:33:24;7.10;95.30
46378;DHT22;32083;47.360;9.650;2023-04-03T15:35:50;7.00;95.40
46378;DHT22;32083;47.360;9.650;2023-04-03T15:38:15;6.90;95.60
46378;DHT22;32083;47.360;9.650;2023-04-03T15:40:42;6.90;95.80
46378;DHT22;32083;47.360;9.650;2023-04-03T15:43:09;6.90;95.40
46378;DHT22;32083;47.360;9.650;2023-04-03T15:45:36;6.90;95.20
46378;DHT22;32083;47.360;9.650;2023-04-03T15:48:03;6.90;95.30
46378;DHT22;32083;47.360;9.650;2023-04-03T15:50:31;6.70;95.40
46378;DHT22;32083;47.360;9.650;2023-04-03T15:52:57;6.80;95.30
46378;DHT22;32083;47.360;9.650;2023-04-03T15:55:25;6.60;95.50
46378;DHT22;32083;47.360;9.650;2023-04-03T15:57:52;6.70;95.70
46378;DHT22;32083;47.360;9.650;2023-04-03T16:00:17;6.80;95.50
46378;DHT22;32083;47.360;9.650;2023-04-03T16:02:45;6.80;96.20
46378;DHT22;32083;47.360;9.650;2023-04-03T16:05:13;6.70;95.80
46378;DHT22;32083;47.360;9.650;2023-04-03T16:07:41;6.70;96.30
46378;DHT22;32083;47.360;9.650;2023-04-03T16:10:08;6.60;96.10
46378;DHT22;32083;47.360;9.650;2023-04-03T16:12:36;6.50;96.20
46378;DHT22;32083;47.360;9.650;2023-04-03T16:15:02;6.60;95.70
46378;DHT22;32083;47.360;9.650;2023-04-03T16:17:29;6.40;95.10
46378;DHT22;32083;47.360;9.650;2023-04-03T16:19:55;6.40;95.40
46378;DHT22;32083;47.360;9.650;2023-04-03T16:22:24;6.40;95.90
46378;DHT22;32083;47.360;9.650;2023-04-03T16:24:50;6.40;95.70
46378;DHT22;32083;47.360;9.650;2023-04-03T16:27:16;6.20;96.10
46378;DHT22;32083;47.360;9.650;2023-04-03T16:29:42;6.30;96.60
46378;DHT22;32083;47.360;9.650;2023-04-03T16:32:08;6.20;96.70
46378;DHT22;32083;47.360;9.650;2023-04-03T16:34:34;6.00;97.00
46378;DHT22;32083;47.360;9.650;2023-04-03T16:37:01;6.20;96.70
46378;DHT22;32083;47.360;9.650;2023-04-03T16:39:27;6.10;96.80
46378;DHT22;32083;47.360;9.650;2023-04-03T16:41:53;6.00;97.10
46378;DHT22;32083;47.360;9.650;2023-04-03T16:44:19;6.00;97.50
46378;DHT22;32083;47.360;9.650;2023-04-03T16:46:45;5.70;97.20
46378;DHT22;32083;47.360;9.650;2023-04-03T16:49:11;5.90;97.00
46378;DHT22;32083;47.360;9.650;2023-04-03T16:51:37;6.00;97.30
46378;DHT22;32083;47.360;9.650;2023-04-03T16:54:03;6.00;97.40
46378;DHT22;32083;47.360;9.650;2023-04-03T16:56:29;6.00;97.60
46378;DHT22;32083;47.360;9.650;2023-04-03T16:58:55;6.00;97.50
46378;DHT22;32083;47.360;9.650;2023-04-03T17:01:22;5.90;97.00
46378;DHT22;32083;47.360;9.650;2023-04-03T17:03:48;5.90;97.10
46378;DHT22;32083;47.360;9.650;2023-04-03T17:06:19;6.00;97.10
46378;DHT22;32083;47.360;9.650;2023-04-03T17:08:47;5.90;97.30
46378;DHT22;32083;47.360;9.650;2023-04-03T17:11:14;6.00;97.30
46378;DHT22;32083;47.360;9.650;2023-04-03T17:13:41;5.70;97.10
46378;DHT22;32083;47.360;9.650;2023-04-03T17:16:09;5.80;97.10
46378;DHT22;32083;47.360;9.650;2023-04-03T17:18:36;5.90;97.20
46378;DHT22;32083;47.360;9.650;2023-04-03T17:21:03;5.70;97.20
46378;DHT22;32083;47.360;9.650;2023-04-03T17:23:30;5.70;96.80
46378;DHT22;32083;47.360;9.650;2023-04-03T17:25:56;5.70;96.80
46378;DHT22;32083;47.360;9.650;2023-04-03T17:28:22;5.60;96.70
46378;DHT22;32083;47.360;9.650;2023-04-03T17:30:57;5.70;96.80
46378;DHT22;32083;47.360;9.650;2023-04-03T17:33:24;5.70;97.40
46378;DHT22;32083;47.360;9.650;2023-04-03T17:35:51;5.70;97.10
46378;DHT22;32083;47.360;9.650;2023-04-03T17:38:17;5.70;97.00
46378;DHT22;32083;47.360;9.650;2023-04-03T17:40:43;5.60;97.10
46378;DHT22;32083;47.360;9.650;2023-04-03T17:43:10;5.60;97.00
46378;DHT22;32083;47.360;9.650;2023-04-03T17:45:37;5.60;97.50
46378;DHT22;32083;47.360;9.650;2023-04-03T17:48:03;5.50;97.20
46378;DHT22;32083;47.360;9.650;2023-04-03T17:50:29;5.60;97.30
46378;DHT22;32083;47.360;9.650;2023-04-03T17:52:55;5.50;97.00
46378;DHT22;32083;47.360;9.650;2023-04-03T17:55:22;5.60;97.70
46378;DHT22;32083;47.360;9.650;2023-04-03T17:57:48;5.50;97.60
46378;DHT22;32083;47.360;9.650;2023-04-03T18:00:15;5.60;97.30
46378;DHT22;32083;47.360;9.650;2023-04-03T18:02:42;5.60;98.30
46378;DHT22;32083;47.360;9.650;2023-04-03T18:05:09;5.50;97.60
46378;DHT22;32083;47.360;9.650;2023-04-03T18:07:39;5.50;97.40
46378;DHT22;32083;47.360;9.650;2023-04-03T18:10:06;5.50;97.80
46378;DHT22;32083;47.360;9.650;2023-04-03T18:12:35;5.40;97.70
46378;DHT22;32083;47.360;9.650;2023-04-03T18:15:03;5.50;97.30
46378;DHT22;32083;47.360;9.650;2023-04-03T18:17:30;5.40;97.00
46378;DHT22;32083;47.360;9.650;2023-04-03T18:19:56;5.30;97.00
46378;DHT22;32083;47.360;9.650;2023-04-03T18:22:23;5.30;97.10
46378;DHT22;32083;47.360;9.650;2023-04-03T18:24:50;5.40;97.40
46378;DHT22;32083;47.360;9.650;2023-04-03T18:27:21;5.50;97.20
46378;DHT22;32083;47.360;9.650;2023-04-03T18:29:53;5.30;97.20
46378;DHT22;32083;47.360;9.650;2023-04-03T18:32:20;5.30;97.30
46378;DHT22;32083;47.360;9.650;2023-04-03T18:34:47;5.40;97.20
46378;DHT22;32083;47.360;9.650;2023-04-03T18:37:13;5.40;97.10
46378;DHT22;32083;47.360;9.650;2023-04-03T18:39:40;5.30;97.00
46378;DHT22;32083;47.360;9.650;2023-04-03T18:42:10;5.40;97.10
46378;DHT22;32083;47.360;9.650;2023-04-03T18:44:38;5.20;97.10
46378;DHT22;32083;47.360;9.650;2023-04-03T18:47:06;5.30;97.20
46378;DHT22;32083;47.360;9.650;2023-04-03T18:49:34;5.20;97.50
46378;DHT22;32083;47.360;9.650;2023-04-03T18:52:01;5.30;97.10
46378;DHT22;32083;47.360;9.650;2023-04-03T18:54:27;5.30;97.40
46378;DHT22;32083;47.360;9.650;2023-04-03T18:56:53;5.30;97.20
46378;DHT22;32083;47.360;9.650;2023-04-03T18:59:19;5.30;97.40
46378;DHT22;32083;47.360;9.650;2023-04-03T19:01:46;5.20;97.50
46378;DHT22;32083;47.360;9.650;2023-04-03T19:04:12;5.20;97.60
46378;DHT22;32083;47.360;9.650;2023-04-03T19:06:39;5.20;97.60
46378;DHT22;32083;47.360;9.650;2023-04-03T19:09:05;5.10;97.50
46378;DHT22;32083;47.360;9.650;2023-04-03T19:11:32;5.10;97.70
46378;DHT22;32083;47.360;9.650;2023-04-03T19:13:58;5.10;97.80
46378;DHT22;32083;47.360;9.650;2023-04-03T19:16:25;5.10;97.90
46378;DHT22;32083;47.360;9.650;2023-04-03T19:18:51;5.10;98.20
46378;DHT22;32083;47.360;9.650;2023-04-03T19:21:17;5.00;97.90
46378;DHT22;32083;47.360;9.650;2023-04-03T19:23:43;5.00;98.00
46378;DHT22;32083;47.360;9.650;2023-04-03T19:26:10;5.00;98.00
46378;DHT22;32083;47.360;9.650;2023-04-03T19:28:37;5.00;98.20
46378;DHT22;32083;47.360;9.650;2023-04-03T19:31:15;4.90;98.10
46378;DHT22;32083;47.360;9.650;2023-04-03T19:33:41;5.00;97.90
46378;DHT22;32083;47.360;9.650;2023-04-03T19:36:09;5.00;97.10
46378;DHT22;32083;47.360;9.650;2023-04-03T19:38:36;5.00;97.70